Monteview, ID

4:00 PM MDT on July 01, 2015 (GMT -0600)
Fuger Farms | | Change Station
CLOSE
Current Station
Personal Weather Station
Location: Howe, ID
Elevation: 4813 ft
Nearby Weather Stations

Elev 4813 ft 43.81 °N, 112.96 °W | Updated 12 seconds ago

Clear
Clear
98.2 °F
Feels Like 97 °F
N
3.8
Wind Variable Wind from ESE
Gusts 4.6 mph

Today
High -- | Low -- °F
--% Chance of Precip.
Yesterday
High -- | Low -- °F
Precip. -- in
5:51 AM 9:16 PM
Full, 100% visible
Pressure 29.93 in
Visibility 8.0 miles
Clouds Scattered Clouds 8000 ft
Heat Index 97 °F
Dew Point 55 °F
Humidity 24%
Rainfall 0.00 in
Snow Depth Not available.
UV 7 out of 12
Pollen 6.80 out of 12
Air Quality Not available.
Flu Activity Not available.
METAR KIDA 012153Z 18003KT 8SM FU SCT080 32/09 A3007 RMK AO2 SLP133 T03220089

More Conditions Fewer Conditions

Pressure 29.93 in
Visibility 8.0 miles
Clouds Scattered Clouds 8000 ft
Heat Index 97 °F
Dew Point 55 °F
Humidity 24%
Rainfall 0.00 in
Snow Depth Not available.
UV 7 out of 12
Pollen 6.80 out of 12
Air Quality Not available.
Flu Activity Not available.
METAR KIDA 012153Z 18003KT 8SM FU SCT080 32/09 A3007 RMK AO2 SLP133 T03220089

More Conditions Fewer Conditions

10-Day Weather Forecast

×

Almanac

Astronomy

Jul. 01, 2015 Rise Set
Actual Time
Civil Twilight
Nautical Twilight
Astronomical Twilight
Moon
Length of Visible Light
Length of Day
Tomorrow will be .
, % of the Moon is Illuminated

Today's Extremes

State Highs State Lows

Community

WunderPhotos

Upload Photos

1,834,303 photos uploaded!

WunderBlogs® & News

Nearby

Air Quality

  Air Quality AQ Index Pollutant
Not available.

Snow Depth

Station Depth Elevation

Earthquake Activity

City Distance Mag. Time & Date
Minimum magnitude displayed is 2.5.

Coastal Water Temperatures

Place Temperature

Stations

Nearby Weather Stations

Station Location Temp. Windchill Dew Point Humidity Wind Precip. Elev Updated Type